Time;durP1;ratioP1;P1;durP2;ratioP2;P2;SDS_P1;SDS_P2;PMS_P1;PMS_P2;Temp;Humidity;BMP_temperature;BMP_pressure;BME280_temperature;BME280_humidity;BME280_pressure;Samples;Min_cycle;Max_cycle;Signal;HPM_P1;HPM_P2
2022/12/23 00:01:16;;;;;;;39.57;23.33;;;6.60;99.90;;;;;;5046198;28;20649;-51
2022/12/23 00:03:46;;;;;;;40.20;23.17;;;6.50;99.90;;;;;;5053079;28;20224;-50
2022/12/23 00:06:16;;;;;;;40.37;22.67;;;6.50;99.90;;;;;;5056522;28;20235;-52
2022/12/23 00:08:47;;;;;;;39.63;21.20;;;6.50;99.90;;;;;;5056483;28;20237;-51
2022/12/23 00:11:18;;;;;;;40.07;21.60;;;6.50;99.90;;;;;;5056251;28;20285;-48
2022/12/23 00:16:31;;;;;;;38.97;22.40;;;6.60;99.90;;;;;;5056384;28;20226;-48
2022/12/23 00:19:01;;;;;;;42.00;22.87;;;6.60;99.90;;;;;;5056406;28;20240;-50
2022/12/23 00:21:29;;;;;;;41.43;23.83;;;6.50;99.90;;;;;;5056550;28;20884;-51
2022/12/23 00:23:57;;;;;;;43.60;24.13;;;6.40;99.90;;;;;;5056386;28;20227;-51
2022/12/23 00:26:26;;;;;;;43.07;23.63;;;6.40;99.90;;;;;;5055797;28;20235;-49
2022/12/23 00:28:57;;;;;;;44.73;25.43;;;6.40;99.90;;;;;;5036349;28;20216;-49
2022/12/23 00:31:25;;;;;;;41.37;22.97;;;6.50;99.90;;;;;;5055903;28;20238;-51
2022/12/23 00:33:53;;;;;;;42.43;24.07;;;6.70;99.90;;;;;;5056126;28;20228;-50
2022/12/23 00:36:26;;;;;;;44.23;23.43;;;6.90;99.90;;;;;;5056360;28;20592;-51
2022/12/23 00:44:26;;;;;;;41.10;23.53;;;7.00;99.90;;;;;;5055614;28;20683;-49
2022/12/23 00:46:54;;;;;;;42.50;23.03;;;7.00;99.90;;;;;;5056215;28;20224;-50
2022/12/23 00:52:11;;;;;;;45.70;23.13;;;7.00;99.90;;;;;;5055723;28;20224;-50
2022/12/23 00:54:40;;;;;;;42.77;23.50;;;7.00;99.90;;;;;;5055895;28;20236;-51
2022/12/23 00:57:08;;;;;;;52.33;28.20;;;7.00;99.90;;;;;;5051339;28;20230;-50
2022/12/23 00:59:36;;;;;;;44.83;25.37;;;6.80;99.90;;;;;;5055701;28;20231;-50
2022/12/23 01:07:45;;;;;;;41.73;22.53;;;6.40;99.90;;;;;;5055677;28;20232;-48
2022/12/23 01:10:13;;;;;;;45.17;26.33;;;6.60;99.90;;;;;;5055715;28;20236;-51
2022/12/23 01:12:41;;;;;;;44.37;25.13;;;6.50;99.90;;;;;;5054931;28;20572;-51
2022/12/23 01:15:10;;;;;;;43.63;24.23;;;6.50;99.90;;;;;;5055332;28;20322;-51
2022/12/23 01:17:38;;;;;;;38.67;20.87;;;6.50;99.90;;;;;;5055348;28;20226;-51
2022/12/23 01:20:07;;;;;;;43.57;24.07;;;6.70;99.90;;;;;;5055284;28;20243;-50
2022/12/23 01:22:35;;;;;;;41.07;23.93;;;6.70;99.90;;;;;;5055110;28;20231;-50
2022/12/23 01:25:06;;;;;;;38.97;22.10;;;6.70;99.90;;;;;;5055162;28;20614;-48
2022/12/23 01:27:34;;;;;;;41.27;23.80;;;6.70;99.90;;;;;;5055317;28;20224;-50
2022/12/23 01:30:02;;;;;;;41.37;22.77;;;6.50;99.90;;;;;;5055190;28;20235;-50
2022/12/23 01:32:31;;;;;;;33.37;19.77;;;6.40;99.90;;;;;;5054324;28;20235;-51
2022/12/23 01:34:59;;;;;;;39.50;24.23;;;6.60;99.90;;;;;;5054805;28;20668;-48
2022/12/23 01:37:27;;;;;;;41.30;24.13;;;6.50;99.90;;;;;;5054742;28;20223;-50
2022/12/23 01:39:55;;;;;;;42.57;23.30;;;6.50;99.90;;;;;;5054824;28;20235;-50
2022/12/23 01:45:16;;;;;;;41.13;21.80;;;6.60;99.90;;;;;;5055055;28;20236;-52
2022/12/23 01:47:48;;;;;;;41.43;22.03;;;6.80;99.90;;;;;;5054707;28;20228;-50
2022/12/23 01:50:21;;;;;;;43.23;23.07;;;6.90;99.90;;;;;;5054685;28;20228;-51
2022/12/23 01:52:56;;;;;;;45.23;25.33;;;7.00;99.90;;;;;;5054731;28;20598;-51
2022/12/23 01:55:35;;;;;;;41.93;21.93;;;6.80;99.90;;;;;;5054447;28;20292;-50
2022/12/23 01:58:10;;;;;;;38.97;22.40;;;6.80;99.90;;;;;;5054352;28;20232;-51
2022/12/23 02:03:43;;;;;;;49.63;25.67;;;6.90;99.90;;;;;;5054054;28;20258;-50
2022/12/23 02:09:17;;;;;;;41.20;23.60;;;6.60;99.90;;;;;;5034425;28;20216;-51
2022/12/23 02:12:24;;;;;;;41.07;23.93;;;6.50;99.90;;;;;;5039524;28;20228;-51
2022/12/23 02:18:03;;;;;;;44.13;23.60;;;6.70;99.90;;;;;;5054144;28;20230;-50
2022/12/23 02:21:01;;;;;;;53.40;27.77;;;6.60;99.90;;;;;;5053979;28;20220;-49
2022/12/23 02:23:57;;;;;;;45.60;26.07;;;6.70;99.90;;;;;;5053440;28;20215;-50
2022/12/23 02:26:55;;;;;;;45.07;25.17;;;6.70;99.90;;;;;;5014350;28;20239;-52
2022/12/23 02:30:04;;;;;;;47.70;25.47;;;6.50;99.90;;;;;;5052509;28;20223;-50
2022/12/23 02:32:43;;;;;;;45.10;25.10;;;6.40;99.90;;;;;;5051138;28;20228;-49
2022/12/23 02:35:14;;;;;;;43.43;24.63;;;6.40;99.90;;;;;;5045633;28;20239;-50
2022/12/23 02:37:53;;;;;;;43.00;25.03;;;6.60;99.90;;;;;;5053659;28;20224;-48
2022/12/23 02:40:34;;;;;;;50.03;25.37;;;6.40;99.90;;;;;;5053716;28;20226;-51
2022/12/23 02:43:08;;;;;;;48.67;27.20;;;6.90;99.90;;;;;;5053900;28;20270;-52
2022/12/23 02:45:43;;;;;;;44.43;25.90;;;6.60;99.90;;;;;;5053768;28;20246;-51
2022/12/23 02:48:16;;;;;;;49.27;26.60;;;6.40;99.90;;;;;;5035732;28;20322;-50
2022/12/23 02:50:46;;;;;;;47.77;26.57;;;6.50;99.90;;;;;;5053404;28;20224;-51
2022/12/23 02:53:20;;;;;;;46.37;23.80;;;6.60;99.90;;;;;;5053745;28;20247;-51
2022/12/23 02:55:50;;;;;;;51.37;27.80;;;6.70;99.90;;;;;;5053761;28;20702;-49
2022/12/23 02:58:22;;;;;;;52.43;27.90;;;6.70;99.90;;;;;;5049389;28;20228;-49
2022/12/23 03:00:51;;;;;;;48.43;27.93;;;6.50;99.90;;;;;;5053131;28;20259;-51
2022/12/23 03:03:21;;;;;;;52.50;28.30;;;6.50;99.90;;;;;;5053097;28;20228;-51
2022/12/23 03:05:50;;;;;;;44.97;26.00;;;6.40;99.90;;;;;;5053431;28;20232;-52
2022/12/23 03:08:22;;;;;;;51.13;27.47;;;6.30;99.90;;;;;;5053633;28;20223;-50
2022/12/23 03:11:03;;;;;;;52.67;26.97;;;6.50;99.90;;;;;;5053207;28;20611;-51
2022/12/23 03:13:43;;;;;;;52.03;27.40;;;6.60;99.90;;;;;;5053172;28;20234;-50
2022/12/23 03:16:19;;;;;;;51.67;29.10;;;6.50;99.90;;;;;;5053313;28;20224;-51
2022/12/23 03:19:02;;;;;;;54.43;29.23;;;6.40;99.90;;;;;;5052816;28;20321;-52
2022/12/23 03:21:38;;;;;;;47.73;28.00;;;6.30;99.90;;;;;;5052843;28;20228;-51
2022/12/23 03:24:17;;;;;;;51.03;27.30;;;6.30;99.90;;;;;;5053205;28;20665;-51
2022/12/23 03:26:53;;;;;;;44.57;24.70;;;6.40;99.90;;;;;;5052917;28;20591;-52
2022/12/23 03:29:29;;;;;;;47.47;25.23;;;6.50;99.90;;;;;;5053201;28;20572;-50
2022/12/23 03:32:00;;;;;;;48.40;25.53;;;6.70;99.90;;;;;;5052342;28;20703;-52
2022/12/23 03:34:35;;;;;;;48.77;25.27;;;6.90;99.90;;;;;;5052155;28;20239;-50
2022/12/23 03:37:07;;;;;;;56.93;27.47;;;6.90;99.90;;;;;;5052143;28;20235;-50
2022/12/23 03:39:40;;;;;;;50.33;25.23;;;6.80;99.90;;;;;;5052615;28;20227;-51
2022/12/23 03:42:15;;;;;;;50.80;25.20;;;6.90;99.90;;;;;;5053043;28;20621;-48
2022/12/23 03:44:46;;;;;;;52.50;28.30;;;6.90;99.90;;;;;;5052466;28;20227;-49
2022/12/23 03:47:38;;;;;;;47.57;25.73;;;6.90;99.90;;;;;;5052828;28;20232;-49
2022/12/23 03:50:11;;;;;;;52.07;27.20;;;6.90;99.90;;;;;;5052987;28;20238;-50
2022/12/23 03:52:46;;;;;;;52.23;26.87;;;7.00;99.90;;;;;;5052507;28;20219;-52
2022/12/23 03:55:20;;;;;;;55.90;26.97;;;7.10;99.90;;;;;;5052535;28;20227;-52
2022/12/23 03:57:56;;;;;;;56.20;27.67;;;7.20;99.90;;;;;;5052448;28;20223;-51
2022/12/23 04:00:24;;;;;;;57.70;28.10;;;7.20;99.90;;;;;;5052213;28;20247;-51
2022/12/23 04:02:59;;;;;;;55.50;26.90;;;7.10;99.90;;;;;;5052428;28;20232;-50
2022/12/23 04:05:32;;;;;;;58.87;29.47;;;7.20;99.90;;;;;;5052295;28;20227;-50
2022/12/23 04:08:08;;;;;;;55.53;30.07;;;7.10;99.90;;;;;;5052736;28;20239;-52
2022/12/23 04:10:37;;;;;;;55.47;27.43;;;6.80;99.90;;;;;;5052454;28;20245;-49
2022/12/23 04:13:05;;;;;;;55.40;25.83;;;6.80;99.90;;;;;;5052791;28;20236;-51
2022/12/23 04:15:33;;;;;;;58.03;27.63;;;6.80;99.90;;;;;;5052087;28;20250;-51
2022/12/23 04:18:01;;;;;;;65.57;29.80;;;6.80;99.90;;;;;;5052312;28;20231;-51
2022/12/23 04:20:31;;;;;;;65.97;32.67;;;6.80;99.90;;;;;;5052082;28;20220;-52
2022/12/23 04:22:59;;;;;;;67.30;32.13;;;6.80;99.90;;;;;;5052629;28;20235;-51
2022/12/23 04:25:27;;;;;;;57.87;29.77;;;6.70;99.90;;;;;;5051774;28;20238;-52
2022/12/23 04:27:55;;;;;;;55.90;28.73;;;6.50;99.90;;;;;;5050122;28;20298;-51
2022/12/23 04:30:23;;;;;;;59.47;30.77;;;6.50;99.90;;;;;;5051658;28;20231;-51
2022/12/23 04:33:00;;;;;;;60.83;31.17;;;6.50;99.90;;;;;;5052185;28;20318;-50
2022/12/23 04:35:28;;;;;;;57.73;30.40;;;6.50;99.90;;;;;;5052088;28;20243;-49
2022/12/23 04:37:57;;;;;;;60.07;30.53;;;6.40;99.90;;;;;;5052183;28;20231;-51
2022/12/23 04:40:25;;;;;;;60.33;31.53;;;6.40;99.90;;;;;;5052476;28;20239;-51
2022/12/23 04:42:53;;;;;;;57.97;29.83;;;6.30;99.90;;;;;;5052209;28;20228;-52
2022/12/23 04:45:21;;;;;;;60.37;31.43;;;6.50;99.90;;;;;;5052635;28;20585;-49
2022/12/23 04:47:50;;;;;;;57.80;30.60;;;6.40;99.90;;;;;;5054319;28;20711;-50
2022/12/23 04:50:18;;;;;;;59.13;31.10;;;6.30;99.90;;;;;;5055901;28;20235;-50
2022/12/23 04:52:46;;;;;;;55.37;28.03;;;6.30;99.90;;;;;;5055966;28;20844;-50
2022/12/23 04:55:15;;;;;;;50.90;26.93;;;6.50;99.90;;;;;;5056410;28;20244;-52
2022/12/23 04:57:43;;;;;;;57.90;30.70;;;6.70;99.90;;;;;;5051446;28;20695;-52
2022/12/23 05:00:12;;;;;;;59.83;30.07;;;6.60;99.90;;;;;;5055364;28;20242;-51
2022/12/23 05:02:40;;;;;;;57.37;27.10;;;6.50;99.90;;;;;;5055343;28;20298;-51
2022/12/23 05:05:08;;;;;;;62.13;31.03;;;6.80;99.90;;;;;;5055582;28;20216;-50
2022/12/23 05:07:36;;;;;;;62.17;28.70;;;6.80;99.90;;;;;;5055598;28;20569;-52
2022/12/23 05:10:05;;;;;;;63.60;29.40;;;6.80;99.90;;;;;;5055671;28;20630;-50
2022/12/23 05:12:34;;;;;;;66.93;31.17;;;6.80;99.90;;;;;;5055435;28;20224;-51
2022/12/23 05:15:02;;;;;;;66.47;31.40;;;6.70;99.90;;;;;;5055346;28;20232;-50
2022/12/23 05:17:30;;;;;;;64.17;31.67;;;6.50;99.90;;;;;;5053704;28;20224;-52
2022/12/23 05:19:58;;;;;;;58.10;30.70;;;6.40;99.90;;;;;;5054861;28;20231;-50
2022/12/23 05:22:26;;;;;;;61.20;29.77;;;6.30;99.90;;;;;;5054948;28;20236;-52
2022/12/23 05:24:54;;;;;;;63.60;30.33;;;6.30;99.90;;;;;;5055091;28;20223;-53
2022/12/23 05:27:22;;;;;;;65.33;30.27;;;6.30;99.90;;;;;;5055181;28;20692;-51
2022/12/23 05:29:52;;;;;;;63.70;31.30;;;6.40;99.90;;;;;;5054928;28;20220;-52
2022/12/23 05:32:20;;;;;;;63.37;29.87;;;6.40;99.90;;;;;;5054208;28;20302;-50
2022/12/23 05:34:48;;;;;;;65.20;30.47;;;6.30;99.90;;;;;;5054236;28;20228;-51
2022/12/23 05:37:16;;;;;;;63.67;30.47;;;6.30;99.90;;;;;;5054565;28;20227;-51
2022/12/23 05:39:44;;;;;;;67.77;30.53;;;6.30;99.90;;;;;;5051560;28;20228;-50
2022/12/23 05:42:12;;;;;;;66.27;31.13;;;6.30;99.90;;;;;;5054802;28;20710;-51
2022/12/23 05:44:40;;;;;;;64.53;31.50;;;6.30;99.90;;;;;;5054647;28;20220;-50
2022/12/23 05:47:09;;;;;;;59.87;26.90;;;6.30;99.90;;;;;;5054619;28;20222;-50
2022/12/23 05:49:37;;;;;;;70.07;31.50;;;6.40;99.90;;;;;;5054632;28;20733;-52
2022/12/23 05:52:05;;;;;;;67.00;29.97;;;6.30;99.90;;;;;;5054871;28;20259;-50
2022/12/23 05:54:33;;;;;;;75.47;29.83;;;6.40;99.90;;;;;;5054238;28;20224;-52
2022/12/23 05:57:01;;;;;;;78.77;31.07;;;6.50;99.90;;;;;;5050679;28;20593;-52
2022/12/23 05:59:30;;;;;;;69.73;31.10;;;6.60;99.90;;;;;;5053239;28;20227;-52
2022/12/23 06:01:58;;;;;;;74.30;31.70;;;6.60;99.90;;;;;;5054044;28;20243;-53
2022/12/23 06:04:28;;;;;;;68.80;29.97;;;6.40;99.90;;;;;;5053580;28;20239;-50
2022/12/23 06:06:56;;;;;;;69.90;30.83;;;6.30;99.90;;;;;;5053990;28;20220;-51
2022/12/23 06:09:25;;;;;;;67.93;29.63;;;6.30;99.90;;;;;;5053805;28;20219;-51
2022/12/23 06:11:53;;;;;;;70.23;30.20;;;6.30;99.90;;;;;;5053398;28;20238;-48
2022/12/23 06:14:21;;;;;;;65.07;28.97;;;6.30;99.90;;;;;;5053689;28;20679;-52
2022/12/23 06:16:55;;;;;;;70.00;29.83;;;6.50;99.90;;;;;;5053575;28;20228;-51
2022/12/23 06:19:24;;;;;;;66.23;29.60;;;6.40;99.90;;;;;;5046599;28;20286;-49
2022/12/23 06:21:53;;;;;;;69.73;30.23;;;6.30;99.90;;;;;;5054342;28;20580;-48
2022/12/23 06:24:22;;;;;;;69.63;29.83;;;6.30;99.90;;;;;;5053924;28;20285;-48
2022/12/23 06:26:50;;;;;;;71.00;31.17;;;6.50;99.90;;;;;;5051480;28;20238;-52
2022/12/23 06:29:24;;;;;;;64.17;30.00;;;6.40;99.90;;;;;;5053910;28;20247;-51
2022/12/23 06:31:52;;;;;;;68.20;30.50;;;6.40;99.90;;;;;;5053413;28;20228;-53
2022/12/23 06:34:20;;;;;;;63.83;30.17;;;6.30;99.90;;;;;;5053778;28;20215;-52
2022/12/23 06:36:48;;;;;;;64.63;29.33;;;6.30;99.90;;;;;;5054038;28;20243;-50
2022/12/23 06:39:17;;;;;;;73.33;31.47;;;6.30;99.90;;;;;;5053894;28;20246;-49
2022/12/23 06:41:46;;;;;;;80.67;28.93;;;6.30;99.90;;;;;;5053627;28;20224;-53
2022/12/23 06:44:14;;;;;;;63.43;27.73;;;6.30;99.90;;;;;;5054004;28;20258;-52
2022/12/23 06:46:42;;;;;;;69.20;29.33;;;6.40;99.90;;;;;;5053742;28;20557;-51
2022/12/23 06:49:10;;;;;;;64.53;29.47;;;6.40;99.90;;;;;;5045312;28;20235;-51
2022/12/23 06:51:41;;;;;;;60.67;27.73;;;6.30;99.90;;;;;;5053359;28;20254;-50
2022/12/23 06:54:11;;;;;;;71.83;29.53;;;6.40;99.90;;;;;;5053485;28;20220;-51
2022/12/23 06:56:40;;;;;;;70.00;29.60;;;6.40;99.90;;;;;;5053733;28;20596;-51
2022/12/23 06:59:08;;;;;;;69.77;27.27;;;6.40;99.90;;;;;;5053169;28;20227;-51
2022/12/23 07:01:36;;;;;;;60.40;28.20;;;6.40;99.90;;;;;;5052640;28;20232;-51
2022/12/23 07:04:04;;;;;;;76.03;26.27;;;6.30;99.90;;;;;;5053212;28;20236;-52
2022/12/23 07:06:32;;;;;;;73.67;28.70;;;6.40;99.90;;;;;;5053284;28;20224;-51
2022/12/23 07:09:00;;;;;;;56.87;25.73;;;6.40;99.90;;;;;;5052975;28;20247;-49
2022/12/23 07:11:28;;;;;;;57.80;24.27;;;6.40;99.90;;;;;;5052864;28;20679;-51
2022/12/23 07:13:59;;;;;;;67.53;25.53;;;6.70;99.90;;;;;;5053399;28;20232;-48
2022/12/23 07:16:27;;;;;;;57.80;26.07;;;6.60;99.90;;;;;;5052622;28;20235;-51
2022/12/23 07:18:55;;;;;;;58.60;23.83;;;6.40;99.90;;;;;;5052662;28;20267;-52
2022/12/23 07:21:23;;;;;;;61.33;24.93;;;6.40;99.90;;;;;;5053064;28;20565;-50
2022/12/23 07:23:56;;;;;;;57.43;23.87;;;6.30;99.90;;;;;;5053063;28;20235;-49
2022/12/23 07:26:25;;;;;;;53.00;24.37;;;6.30;99.90;;;;;;5051475;28;20572;-51
2022/12/23 07:28:53;;;;;;;56.20;23.33;;;6.30;99.90;;;;;;5050904;28;20243;-51
2022/12/23 07:31:23;;;;;;;60.07;24.77;;;6.30;99.90;;;;;;5052066;28;20236;-52
2022/12/23 07:33:51;;;;;;;53.93;22.07;;;6.30;99.90;;;;;;5052608;28;20334;-48
2022/12/23 07:36:19;;;;;;;53.07;22.60;;;6.30;99.90;;;;;;5052914;28;20247;-50
2022/12/23 07:38:50;;;;;;;54.13;22.83;;;6.30;99.90;;;;;;5052714;28;20235;-52
2022/12/23 07:41:19;;;;;;;52.17;22.47;;;6.40;99.90;;;;;;5052616;28;20266;-48
2022/12/23 07:43:47;;;;;;;46.23;20.03;;;6.40;99.90;;;;;;5051942;28;21100;-51
2022/12/23 07:46:16;;;;;;;57.20;22.03;;;6.40;99.90;;;;;;5052643;28;20224;-51
2022/12/23 07:48:45;;;;;;;58.73;24.20;;;6.50;99.90;;;;;;5052351;28;20228;-49
2022/12/23 07:51:13;;;;;;;54.37;22.73;;;6.40;99.90;;;;;;5052914;28;20700;-51
2022/12/23 07:53:41;;;;;;;57.23;23.97;;;6.40;99.90;;;;;;5052503;28;20220;-50
2022/12/23 07:56:09;;;;;;;56.00;23.73;;;6.40;99.90;;;;;;5052785;28;20699;-53
2022/12/23 07:58:37;;;;;;;47.47;20.70;;;6.30;99.90;;;;;;5052490;28;20232;-52
2022/12/23 08:01:07;;;;;;;56.00;22.40;;;6.50;99.90;;;;;;5052095;28;20305;-52
2022/12/23 08:03:36;;;;;;;53.97;23.73;;;6.40;99.90;;;;;;5052252;28;20584;-51
2022/12/23 08:06:08;;;;;;;53.63;22.33;;;6.40;99.90;;;;;;5052675;28;20228;-48
2022/12/23 08:08:37;;;;;;;49.50;22.47;;;6.40;99.90;;;;;;5052017;28;20224;-52
2022/12/23 08:11:07;;;;;;;55.83;22.70;;;6.40;99.90;;;;;;5052372;28;20608;-52
2022/12/23 08:13:37;;;;;;;50.00;21.83;;;6.40;99.90;;;;;;5052231;28;20587;-53
2022/12/23 08:16:06;;;;;;;48.10;20.50;;;6.40;99.90;;;;;;5051711;28;20228;-49
2022/12/23 08:18:36;;;;;;;45.77;21.17;;;6.40;99.90;;;;;;5051836;28;20768;-52
2022/12/23 08:21:08;;;;;;;53.87;21.90;;;6.40;99.90;;;;;;5052458;28;20224;-51
2022/12/23 08:23:36;;;;;;;45.97;19.77;;;6.40;99.90;;;;;;5055490;28;20683;-51
2022/12/23 08:26:06;;;;;;;48.53;20.07;;;6.40;99.90;;;;;;5056581;28;20273;-50
2022/12/23 08:28:36;;;;;;;49.67;20.13;;;6.40;99.90;;;;;;5055988;28;20469;-50
2022/12/23 08:31:05;;;;;;;47.87;19.80;;;6.30;99.90;;;;;;5055285;28;20234;-51
2022/12/23 08:33:35;;;;;;;42.50;18.70;;;6.40;99.90;;;;;;5054280;28;20274;-50
2022/12/23 08:36:06;;;;;;;44.23;18.57;;;6.40;99.90;;;;;;5055864;28;20224;-47
2022/12/23 08:38:35;;;;;;;39.43;17.53;;;6.40;99.90;;;;;;5056182;28;20237;-52
2022/12/23 08:41:09;;;;;;;41.87;17.33;;;6.40;99.90;;;;;;5055814;28;20220;-51
2022/12/23 08:43:37;;;;;;;42.90;18.63;;;6.30;99.90;;;;;;5055409;28;20239;-51
2022/12/23 08:46:06;;;;;;;40.73;16.70;;;6.40;99.90;;;;;;5056078;28;20224;-52
2022/12/23 08:48:35;;;;;;;39.07;17.30;;;6.40;99.90;;;;;;5055533;28;20235;-50
2022/12/23 08:51:06;;;;;;;44.57;18.87;;;6.40;99.90;;;;;;5055791;28;20226;-50
2022/12/23 08:53:36;;;;;;;43.77;18.50;;;6.40;99.90;;;;;;5055496;28;20224;-51
2022/12/23 08:56:06;;;;;;;43.70;17.70;;;6.40;99.90;;;;;;5055329;28;20227;-49
2022/12/23 08:58:36;;;;;;;42.47;17.80;;;6.40;99.90;;;;;;5054654;28;20628;-52
2022/12/23 09:01:05;;;;;;;41.03;17.67;;;6.40;99.90;;;;;;5055132;28;20240;-49
2022/12/23 09:03:34;;;;;;;41.43;18.53;;;6.40;99.90;;;;;;5055058;28;20224;-51
2022/12/23 09:06:06;;;;;;;43.37;17.37;;;6.40;99.90;;;;;;5054906;28;20231;-51
2022/12/23 09:08:34;;;;;;;45.30;18.73;;;6.70;99.90;;;;;;5054948;28;20223;-51
2022/12/23 09:11:03;;;;;;;44.90;17.93;;;6.60;99.90;;;;;;5050944;28;20231;-52
2022/12/23 09:13:31;;;;;;;47.17;18.57;;;6.70;99.90;;;;;;5058891;28;20709;-52
2022/12/23 09:16:03;;;;;;;44.77;19.43;;;6.60;99.90;;;;;;5063790;28;20223;-49
2022/12/23 09:18:31;;;;;;;50.60;19.83;;;6.60;99.90;;;;;;5064369;28;20274;-51
2022/12/23 09:21:01;;;;;;;45.40;18.97;;;6.60;99.90;;;;;;5062957;28;20235;-52
2022/12/23 09:23:30;;;;;;;47.27;19.83;;;6.60;99.90;;;;;;5062321;28;20232;-52
2022/12/23 09:25:58;;;;;;;51.17;22.00;;;6.50;99.90;;;;;;5064077;28;20227;-51
2022/12/23 09:28:27;;;;;;;51.43;21.10;;;6.50;99.90;;;;;;5065207;28;20223;-52
2022/12/23 09:30:55;;;;;;;49.33;21.00;;;6.50;99.90;;;;;;5065960;28;20227;-51
2022/12/23 09:33:23;;;;;;;51.10;19.97;;;6.60;99.90;;;;;;5064383;28;20272;-51
2022/12/23 09:35:51;;;;;;;52.97;21.60;;;6.60;99.90;;;;;;5066914;28;20219;-51
2022/12/23 09:38:19;;;;;;;53.37;21.77;;;6.60;99.90;;;;;;5068527;28;20234;-50
2022/12/23 09:40:48;;;;;;;54.87;21.30;;;6.60;99.90;;;;;;5058975;28;20215;-51
2022/12/23 09:43:29;;;;;;;50.77;19.80;;;6.70;99.90;;;;;;5068308;28;20226;-51
2022/12/23 09:46:05;;;;;;;54.67;21.93;;;6.90;99.90;;;;;;5064653;28;20227;-49
2022/12/23 09:48:38;;;;;;;55.67;21.37;;;6.80;99.90;;;;;;5068929;28;20222;-51
2022/12/23 09:51:09;;;;;;;52.30;21.10;;;6.80;99.90;;;;;;5068512;28;20314;-50
2022/12/23 09:53:49;;;;;;;52.10;23.07;;;6.80;99.90;;;;;;5067753;28;20216;-51
2022/12/23 09:56:27;;;;;;;48.83;22.47;;;6.80;99.90;;;;;;5066606;28;20231;-48
2022/12/23 09:59:03;;;;;;;50.53;21.90;;;6.80;99.90;;;;;;5062635;28;20222;-50
2022/12/23 10:01:38;;;;;;;51.40;20.57;;;7.00;99.90;;;;;;5065467;28;20239;-50
2022/12/23 10:04:34;;;;;;;54.17;21.93;;;7.10;99.90;;;;;;5062698;28;20231;-52
2022/12/23 10:07:25;;;;;;;52.87;21.47;;;6.90;99.90;;;;;;5066600;28;20219;-49
2022/12/23 10:09:56;;;;;;;49.37;21.07;;;6.80;99.90;;;;;;5066629;28;20219;-51
2022/12/23 10:12:33;;;;;;;52.87;21.00;;;7.10;99.90;;;;;;5062760;28;20233;-52
2022/12/23 10:15:19;;;;;;;50.70;20.70;;;7.00;99.90;;;;;;5065826;28;20219;-51
2022/12/23 10:17:53;;;;;;;54.27;22.00;;;7.00;99.90;;;;;;5065996;28;20313;-48
2022/12/23 10:20:32;;;;;;;49.27;21.37;;;7.00;99.90;;;;;;5065834;28;20314;-48
2022/12/23 10:23:00;;;;;;;46.83;22.17;;;7.00;99.90;;;;;;5066958;28;20223;-53
2022/12/23 10:25:37;;;;;;;48.43;22.13;;;7.00;99.90;;;;;;5061122;28;20228;-51
2022/12/23 10:28:09;;;;;;;47.50;21.53;;;7.00;99.90;;;;;;5063091;28;20216;-51
2022/12/23 10:30:40;;;;;;;48.90;21.97;;;7.10;99.90;;;;;;5063688;28;20591;-51
2022/12/23 10:33:37;;;;;;;48.27;21.80;;;7.00;99.90;;;;;;5059105;28;20699;-51
2022/12/23 10:36:12;;;;;;;45.43;21.50;;;7.00;99.90;;;;;;5062114;28;20224;-51
2022/12/23 10:38:53;;;;;;;45.67;20.53;;;6.90;99.90;;;;;;5065327;28;20227;-51
2022/12/23 10:41:34;;;;;;;48.23;21.83;;;6.90;99.90;;;;;;5065400;28;20230;-51
2022/12/23 10:44:25;;;;;;;49.70;21.47;;;6.90;99.90;;;;;;5065936;28;20251;-50
2022/12/23 10:47:01;;;;;;;38.93;18.07;;;7.00;99.90;;;;;;5065840;28;20579;-50
2022/12/23 10:49:40;;;;;;;44.53;21.47;;;7.20;99.90;;;;;;5064707;28;20622;-48
2022/12/23 10:52:12;;;;;;;47.97;21.47;;;7.10;99.90;;;;;;5063401;28;20615;-49
2022/12/23 10:54:43;;;;;;;46.00;20.03;;;7.00;99.90;;;;;;5067268;28;20687;-49
2022/12/23 10:57:14;;;;;;;41.77;19.13;;;7.10;99.90;;;;;;5064612;28;20265;-51
2022/12/23 10:59:44;;;;;;;50.37;21.53;;;7.20;99.90;;;;;;5064426;28;20223;-52
2022/12/23 11:02:30;;;;;;;48.37;20.93;;;7.20;99.90;;;;;;5064275;28;20228;-49
2022/12/23 11:04:59;;;;;;;44.13;19.90;;;7.10;99.90;;;;;;5064175;28;20239;-52
2022/12/23 11:07:29;;;;;;;47.90;21.27;;;7.20;99.90;;;;;;5065906;28;20258;-52
2022/12/23 11:10:17;;;;;;;44.73;21.00;;;7.40;99.90;;;;;;5066407;28;20694;-47
2022/12/23 11:12:48;;;;;;;46.43;21.23;;;7.30;99.90;;;;;;5062709;28;20767;-51
2022/12/23 11:15:29;;;;;;;43.10;19.70;;;7.30;99.90;;;;;;5064379;28;20461;-53
2022/12/23 11:17:59;;;;;;;42.40;20.53;;;7.40;99.90;;;;;;5064818;28;20223;-51
2022/12/23 11:20:29;;;;;;;40.43;18.03;;;7.40;99.90;;;;;;5064919;28;20231;-52
2022/12/23 11:23:00;;;;;;;40.47;19.50;;;7.70;99.90;;;;;;5067892;28;20235;-51
2022/12/23 11:25:35;;;;;;;48.03;21.20;;;7.60;99.90;;;;;;5065645;28;20254;-52
2022/12/23 11:28:08;;;;;;;39.83;19.70;;;7.50;99.90;;;;;;5063787;28;20219;-52
2022/12/23 11:30:46;;;;;;;43.77;19.53;;;7.40;99.90;;;;;;5065210;28;20242;-49
2022/12/23 11:33:25;;;;;;;40.63;19.90;;;7.30;99.90;;;;;;5061769;28;20578;-51
2022/12/23 11:36:02;;;;;;;36.20;17.60;;;7.30;99.90;;;;;;5065302;28;20227;-50
2022/12/23 11:38:31;;;;;;;43.43;18.97;;;7.40;99.90;;;;;;5065147;28;20240;-53
2022/12/23 11:40:59;;;;;;;40.93;20.00;;;7.50;99.90;;;;;;5065309;28;20258;-52
2022/12/23 11:43:28;;;;;;;42.17;20.30;;;7.50;99.90;;;;;;5066734;28;20235;-54
2022/12/23 11:46:18;;;;;;;42.63;20.63;;;7.60;99.90;;;;;;5066900;28;20215;-50
2022/12/23 11:48:46;;;;;;;42.60;20.17;;;7.60;99.90;;;;;;5065765;28;20229;-51
2022/12/23 11:51:26;;;;;;;43.23;20.30;;;7.60;99.90;;;;;;5067027;28;20285;-48
2022/12/23 11:54:00;;;;;;;44.10;20.23;;;7.70;99.90;;;;;;5066417;28;20583;-50
2022/12/23 11:56:29;;;;;;;45.67;20.57;;;7.80;99.90;;;;;;5064628;28;20579;-51
2022/12/23 11:59:05;;;;;;;45.10;19.83;;;7.90;99.90;;;;;;5060520;28;20289;-53
2022/12/23 12:01:36;;;;;;;43.57;19.07;;;7.80;99.90;;;;;;5060045;28;20238;-52
2022/12/23 12:04:07;;;;;;;42.43;19.67;;;7.90;99.90;;;;;;5062162;28;20298;-51
2022/12/23 12:06:42;;;;;;;37.87;17.33;;;7.90;99.90;;;;;;5066893;28;21030;-50
2022/12/23 12:09:13;;;;;;;40.80;19.53;;;7.90;99.90;;;;;;5063995;28;20226;-52
2022/12/23 12:11:47;;;;;;;40.03;19.33;;;7.90;99.90;;;;;;5064337;28;20259;-51
2022/12/23 12:14:22;;;;;;;41.13;20.50;;;7.80;99.90;;;;;;5066817;28;20226;-52
2022/12/23 12:16:57;;;;;;;39.40;18.30;;;7.70;99.90;;;;;;5064279;28;20222;-49
2022/12/23 12:19:30;;;;;;;37.53;16.80;;;7.80;99.90;;;;;;5065941;28;20234;-51
2022/12/23 12:22:02;;;;;;;39.73;16.80;;;7.90;99.90;;;;;;5060627;28;20216;-51
2022/12/23 12:24:35;;;;;;;38.07;17.00;;;8.00;99.90;;;;;;5064212;28;20592;-51
2022/12/23 12:27:07;;;;;;;39.00;18.90;;;8.00;99.90;;;;;;5060827;28;20222;-51
2022/12/23 12:29:39;;;;;;;38.00;18.07;;;8.00;99.90;;;;;;5062257;28;20234;-51
2022/12/23 12:32:16;;;;;;;38.80;16.60;;;8.00;99.90;;;;;;5059262;28;20235;-48
2022/12/23 12:34:52;;;;;;;40.00;17.97;;;7.90;99.90;;;;;;5061996;28;20226;-51
2022/12/23 12:37:29;;;;;;;30.77;15.53;;;7.80;99.90;;;;;;5065871;28;20218;-51
2022/12/23 12:40:02;;;;;;;37.07;16.90;;;7.90;99.90;;;;;;5063514;28;20233;-49
2022/12/23 12:42:35;;;;;;;35.67;15.57;;;8.00;99.90;;;;;;5063860;28;20232;-50
2022/12/23 12:45:14;;;;;;;33.43;16.30;;;8.00;99.90;;;;;;5064457;28;20227;-50
2022/12/23 12:47:52;;;;;;;32.97;15.77;;;8.10;99.90;;;;;;5062424;28;20222;-54
2022/12/23 12:50:30;;;;;;;35.07;15.67;;;8.10;99.90;;;;;;5065291;28;20280;-52
2022/12/23 12:53:03;;;;;;;35.70;17.03;;;8.10;99.90;;;;;;5059546;28;20231;-52
2022/12/23 12:55:36;;;;;;;35.57;15.80;;;8.20;99.90;;;;;;5064021;28;20579;-52
2022/12/23 12:58:04;;;;;;;34.00;17.10;;;8.20;99.90;;;;;;5064662;28;20246;-51
2022/12/23 13:00:43;;;;;;;31.90;16.03;;;8.20;99.90;;;;;;5064029;28;20247;-52
2022/12/23 13:03:26;;;;;;;39.93;17.93;;;8.10;99.90;;;;;;5062420;28;20235;-50
2022/12/23 13:06:12;;;;;;;36.50;19.40;;;8.10;99.90;;;;;;5064294;28;20229;-52
2022/12/23 13:08:58;;;;;;;35.93;19.67;;;8.00;99.90;;;;;;5064923;28;20258;-51
2022/12/23 13:11:35;;;;;;;38.80;21.60;;;7.90;99.90;;;;;;5065912;28;20580;-51
2022/12/23 13:14:12;;;;;;;37.50;20.00;;;7.80;99.90;;;;;;5069633;28;20223;-48
2022/12/23 13:16:46;;;;;;;36.50;18.90;;;7.80;99.90;;;;;;5069431;28;20218;-52
2022/12/23 13:19:26;;;;;;;42.77;19.20;;;7.80;99.90;;;;;;5069374;28;20710;-52
2022/12/23 13:22:01;;;;;;;36.60;19.07;;;7.70;99.90;;;;;;5063532;28;20656;-51
2022/12/23 13:24:35;;;;;;;33.73;17.70;;;7.70;99.90;;;;;;5064067;28;20234;-51
2022/12/23 13:27:11;;;;;;;39.47;21.03;;;7.70;99.90;;;;;;5064681;28;20229;-51
2022/12/23 13:29:54;;;;;;;34.93;18.37;;;7.80;99.90;;;;;;5066173;28;20223;-50